Ana Sayfa
METAR-TAF:

METAR-TAF

Havaalanları :

Konakri, Gine

Konakri Uluslararası Havalimanı

Enlem: 09-34N, Boylam: 013-37W, yükseklik: 26 m

Güncel hava durumu gözlemi

Rapor saat 06:00 UTC de 25 dakika önce yapıldı.
Sakin rüzgar
Sıcaklık 24°C
Nem 100%
Basınç 1011 hPa
Görüş mesafesi: 3000 m
11000 ft yükseklikte parçalı bulutlu
Pus

METAR: GUCY 210600Z 00000KT 3000 BR SCT110 24/24 Q1011 NOSIG

Saat: 06:25 (06:25 UTC)

Tahmin

Rapor saat 06:00 UTC de 25 dakika önce yapıldı.
Ayın 19'si saat 06 UTC'den ayın 20'si saat 12 UTC'ye kadar geçerli Tahmin
Rüzgar batıdan 6 kt
Görüş mesafesi: 5000 m
Toz Pusu
Geçici
ayın 19'si saat 07 UTC'den ayın 19'si saat 12 UTC'ye kadar
Rüzgar kuzeydoğudan 4 kt
Görüş mesafesi: 4000 m
1500 ft yükseklikte az bulutlu
Pus

TAF: GUCY 190600Z 1906/2012 28006KT 5000 HZ NSC TEMPO 1907/1912 04004KT 4000 BR FEW015

4.000'den fazla havaalanı için hava durumu gözlemleri ve tahminleri (METAR ve TAF raporları).

Kullanılabilir istasyonlar harita üzerinde sarı ve kırmızı noktalarla gösterilir.

İstasyonun adını görmek için fareyi noktanın üzerinde gezdirin.

Sonrasında hava gözlem ve tahminlerini görmek için tıklayın.

Haritayı değiştirmek için: yaklaştırmak için siyah artı işaretli yeşil düğmeye ve uzaklaştırmak için de eksi işaretli düğmeye hızla tıklayın; bitişik haritalar için yeşil okları kullanın.


METAR-TAF: